createdAt,value
2018-12-29T00:01:47.216Z,0.97
2018-12-29T00:04:37.329Z,0.99
2018-12-29T00:07:27.849Z,0.98
2018-12-29T00:10:18.152Z,0.99
2018-12-29T00:13:08.361Z,0.94
2018-12-29T00:16:02.882Z,0.93
2018-12-29T00:18:53.252Z,0.89
2018-12-29T00:21:43.559Z,0.88
2018-12-29T00:24:33.867Z,0.84
2018-12-29T00:27:24.244Z,0.90
2018-12-29T00:30:14.032Z,0.88
2018-12-29T00:33:03.895Z,0.89
2018-12-29T00:35:54.410Z,0.93
2018-12-29T00:38:44.416Z,0.92
2018-12-29T00:41:34.607Z,0.94
2018-12-29T00:44:25.139Z,0.94
2018-12-29T00:47:15.041Z,0.90
2018-12-29T00:50:05.267Z,0.90
2018-12-29T00:52:55.251Z,0.90
2018-12-29T00:55:45.141Z,0.84
2018-12-29T00:58:35.333Z,0.77
2018-12-29T01:01:25.426Z,0.71
2018-12-29T01:04:15.319Z,0.53
2018-12-29T01:07:05.178Z,0.55
2018-12-29T01:09:55.623Z,0.59
2018-12-29T01:12:45.788Z,0.63
2018-12-29T01:15:36.262Z,0.64
2018-12-29T01:18:26.619Z,0.70
2018-12-29T01:21:16.384Z,0.70
2018-12-29T01:24:06.248Z,0.76
2018-12-29T01:26:56.029Z,0.60
2018-12-29T01:29:46.291Z,0.66
2018-12-29T01:32:36.019Z,0.72
2018-12-29T01:35:26.251Z,0.66
2018-12-29T01:38:16.478Z,0.66
2018-12-29T01:41:06.558Z,0.69
2018-12-29T01:43:56.833Z,0.64
2018-12-29T01:46:46.658Z,0.46
2018-12-29T01:49:36.375Z,0.44
2018-12-29T01:52:26.320Z,0.43
2018-12-29T01:55:16.003Z,0.20
2018-12-29T01:58:06.314Z,-0.02
2018-12-29T02:00:56.792Z,-0.04
2018-12-29T02:03:46.756Z,-0.07
2018-12-29T02:06:36.583Z,-0.09
2018-12-29T02:09:26.329Z,-0.17
2018-12-29T02:12:16.115Z,-0.22
2018-12-29T02:15:05.950Z,-0.32
2018-12-29T02:17:56.142Z,-0.38
2018-12-29T02:20:46.568Z,-0.43
2018-12-29T02:23:36.870Z,-0.50
2018-12-29T02:26:27.452Z,-0.57
2018-12-29T02:29:17.348Z,-0.60
2018-12-29T02:32:07.342Z,-0.58
2018-12-29T02:34:57.181Z,-0.74
2018-12-29T02:37:47.553Z,-0.78
2018-12-29T02:40:37.517Z,-0.79
2018-12-29T02:43:27.659Z,-0.73
2018-12-29T02:46:17.803Z,-0.71
2018-12-29T02:49:07.952Z,-0.84
2018-12-29T02:51:58.597Z,-1.09
2018-12-29T02:54:48.675Z,-1.21
2018-12-29T02:57:38.564Z,-1.17
2018-12-29T03:00:28.856Z,-1.24
2018-12-29T03:03:19.501Z,-1.15
2018-12-29T03:06:09.355Z,-1.07
2018-12-29T03:08:59.560Z,-1.00
2018-12-29T03:11:50.064Z,-1.00
2018-12-29T03:14:40.758Z,-1.01
2018-12-29T03:17:30.804Z,-1.11
2018-12-29T03:20:20.714Z,-1.11
2018-12-29T03:23:11.367Z,-1.30
2018-12-29T03:26:01.453Z,-1.19
2018-12-29T03:28:51.172Z,-1.16
2018-12-29T03:31:41.085Z,-1.14
2018-12-29T03:34:31.085Z,-1.06
2018-12-29T03:37:21.304Z,-1.08
2018-12-29T03:40:11.630Z,-1.05
2018-12-29T03:43:01.676Z,-1.02
2018-12-29T03:45:52.841Z,-0.89
2018-12-29T03:48:42.934Z,-0.92
2018-12-29T03:51:33.146Z,-0.92
2018-12-29T03:54:23.027Z,-0.82
2018-12-29T03:57:13.048Z,-0.75
2018-12-29T04:00:03.136Z,-0.73
2018-12-29T04:02:53.350Z,-0.80
2018-12-29T04:05:43.218Z,-0.67
2018-12-29T04:08:33.312Z,-0.75
2018-12-29T04:11:23.433Z,-0.77
2018-12-29T04:14:13.455Z,-0.79
2018-12-29T04:17:03.700Z,-0.78
2018-12-29T04:19:53.668Z,-0.81
2018-12-29T04:22:43.366Z,-0.74
2018-12-29T04:25:33.571Z,-0.77
2018-12-29T04:28:23.496Z,-1.02
2018-12-29T04:31:13.333Z,-1.02
2018-12-29T04:34:03.279Z,-0.83
2018-12-29T04:36:53.479Z,-0.70
2018-12-29T04:39:43.546Z,-0.70
2018-12-29T04:42:33.621Z,-0.56
2018-12-29T04:45:23.083Z,-0.55
2018-12-29T04:48:13.288Z,-0.60
2018-12-29T04:51:03.776Z,-0.73
2018-12-29T04:53:53.837Z,-0.73
2018-12-29T04:56:43.896Z,-0.84
2018-12-29T04:59:34.689Z,-0.84
2018-12-29T05:02:24.849Z,-0.67
2018-12-29T05:05:15.289Z,-0.67
2018-12-29T05:08:05.072Z,-0.71
2018-12-29T05:10:55.519Z,-0.81
2018-12-29T05:13:45.443Z,-0.81
2018-12-29T05:16:35.619Z,-0.80
2018-12-29T05:19:25.945Z,-0.83
2018-12-29T05:22:16.077Z,-0.84
2018-12-29T05:25:06.535Z,-0.92
2018-12-29T05:27:56.351Z,-0.91
2018-12-29T05:30:46.410Z,-0.95
2018-12-29T05:33:36.181Z,-0.94
2018-12-29T05:36:25.813Z,-1.09
2018-12-29T05:39:15.865Z,-0.99
2018-12-29T05:42:05.478Z,-0.99
2018-12-29T05:44:55.312Z,-1.04
2018-12-29T05:47:44.961Z,-0.89
2018-12-29T05:50:34.900Z,-0.87
2018-12-29T05:53:25.300Z,-0.87
2018-12-29T05:56:14.910Z,-0.74
2018-12-29T05:59:04.823Z,-0.67
2018-12-29T06:01:54.538Z,-0.84
2018-12-29T06:04:44.864Z,-0.76
2018-12-29T06:07:34.984Z,-0.79
2018-12-29T06:10:25.001Z,-0.79
2018-12-29T06:13:15.355Z,-0.76
2018-12-29T06:16:06.059Z,-0.91
2018-12-29T06:18:56.400Z,-0.83
2018-12-29T06:21:46.300Z,-0.83
2018-12-29T06:24:36.499Z,-0.77
2018-12-29T06:27:26.697Z,-0.71
2018-12-29T06:30:16.607Z,-0.57
2018-12-29T06:33:06.063Z,-0.48
2018-12-29T06:35:56.176Z,-0.47
2018-12-29T06:38:46.471Z,-0.47
2018-12-29T06:41:36.334Z,-0.42
2018-12-29T06:44:26.155Z,-0.55
2018-12-29T06:47:16.185Z,-0.63
2018-12-29T06:50:06.475Z,-0.52
2018-12-29T06:52:56.566Z,-0.66
2018-12-29T06:55:46.303Z,-0.57
2018-12-29T06:58:36.534Z,-0.41
2018-12-29T07:01:26.359Z,-0.41
2018-12-29T07:04:16.127Z,-0.44
2018-12-29T07:07:06.734Z,-0.41
2018-12-29T07:09:56.918Z,-0.41
2018-12-29T07:12:46.695Z,-0.44
2018-12-29T07:15:36.438Z,-0.55
2018-12-29T07:18:25.942Z,-0.51
2018-12-29T07:21:16.209Z,-0.45
2018-12-29T07:24:06.425Z,-0.50
2018-12-29T07:26:56.390Z,-0.43
2018-12-29T07:29:46.358Z,-0.40
2018-12-29T07:32:36.126Z,-0.46
2018-12-29T07:35:26.066Z,-0.46
2018-12-29T07:38:15.854Z,-0.43
2018-12-29T07:41:06.178Z,-0.45
2018-12-29T07:43:56.568Z,-0.49
2018-12-29T07:46:49.694Z,-0.43
2018-12-29T07:49:38.194Z,-0.46
2018-12-29T07:52:28.314Z,-0.48
2018-12-29T07:55:18.458Z,-0.46
2018-12-29T07:58:08.732Z,-0.43
2018-12-29T08:00:58.872Z,-0.47
2018-12-29T08:03:48.766Z,-0.49
2018-12-29T08:06:38.936Z,-0.41
2018-12-29T08:09:28.918Z,-0.44
2018-12-29T08:12:18.813Z,-0.45
2018-12-29T08:15:08.916Z,-0.46
2018-12-29T08:17:59.797Z,-0.45
2018-12-29T08:20:50.550Z,-0.44
2018-12-29T08:23:41.075Z,-0.35
2018-12-29T08:26:31.770Z,-0.41
2018-12-29T08:29:22.040Z,-0.42
2018-12-29T08:32:12.029Z,-0.33
2018-12-29T08:35:02.174Z,-0.29
2018-12-29T08:37:52.585Z,-0.17
2018-12-29T08:40:42.646Z,-0.01
2018-12-29T08:43:32.626Z,0.08
2018-12-29T08:46:23.046Z,0.22
2018-12-29T08:49:13.381Z,0.27
2018-12-29T08:52:03.748Z,0.32
2018-12-29T08:54:53.940Z,0.34
2018-12-29T08:57:43.584Z,0.45
2018-12-29T09:00:33.867Z,0.32
2018-12-29T09:03:23.613Z,0.31
2018-12-29T09:06:13.551Z,0.42
2018-12-29T09:09:04.482Z,0.44
2018-12-29T09:11:55.257Z,0.59
2018-12-29T09:14:45.452Z,0.64
2018-12-29T09:17:35.281Z,0.56
2018-12-29T09:20:24.788Z,0.74
2018-12-29T09:23:14.976Z,0.73
2018-12-29T09:26:04.850Z,0.88
2018-12-29T09:28:55.194Z,0.89
2018-12-29T09:31:45.539Z,0.85
2018-12-29T09:34:36.172Z,0.83
2018-12-29T09:37:26.287Z,0.82
2018-12-29T09:40:16.587Z,0.84
2018-12-29T09:43:07.090Z,0.99
2018-12-29T09:45:57.448Z,1.09
2018-12-29T09:48:47.266Z,1.13
2018-12-29T09:51:37.487Z,1.16
2018-12-29T09:54:27.320Z,1.05
2018-12-29T09:57:17.501Z,1.18
2018-12-29T10:00:08.210Z,1.18
2018-12-29T10:02:58.375Z,1.27
2018-12-29T10:05:48.295Z,1.35
2018-12-29T10:08:38.645Z,1.34
2018-12-29T10:11:29.152Z,1.35
2018-12-29T10:14:19.590Z,1.38
2018-12-29T10:17:09.978Z,1.39
2018-12-29T10:20:00.532Z,1.41
2018-12-29T10:22:51.058Z,1.58
2018-12-29T10:25:41.229Z,1.47
2018-12-29T10:28:31.628Z,1.62
2018-12-29T10:31:22.161Z,1.57
2018-12-29T10:34:12.928Z,1.69
2018-12-29T10:37:03.554Z,1.69
2018-12-29T10:39:53.981Z,1.68
2018-12-29T10:42:44.124Z,1.64
2018-12-29T10:45:34.730Z,1.72
2018-12-29T10:48:24.535Z,1.68
2018-12-29T10:51:14.903Z,1.71
2018-12-29T10:54:05.103Z,1.81
2018-12-29T10:56:55.192Z,1.75
2018-12-29T10:59:45.380Z,1.72
2018-12-29T11:02:35.223Z,1.81
2018-12-29T11:05:25.233Z,1.92
2018-12-29T11:08:15.722Z,2.06
2018-12-29T11:11:06.053Z,2.11
2018-12-29T11:13:56.374Z,2.21
2018-12-29T11:16:48.534Z,2.35
2018-12-29T11:19:38.492Z,2.34
2018-12-29T11:22:28.961Z,2.42
2018-12-29T11:25:19.470Z,2.30
2018-12-29T11:28:10.163Z,2.26
2018-12-29T11:31:01.753Z,2.24
2018-12-29T11:33:52.330Z,2.22
2018-12-29T11:36:42.356Z,2.22
2018-12-29T11:39:32.724Z,2.23
2018-12-29T11:42:23.030Z,2.31
2018-12-29T11:45:13.399Z,2.20
2018-12-29T11:48:03.845Z,2.23
2018-12-29T11:50:54.187Z,2.16
2018-12-29T11:53:46.144Z,2.21
2018-12-29T11:56:36.626Z,2.20
2018-12-29T11:59:26.632Z,2.25
2018-12-29T12:02:24.309Z,2.19
2018-12-29T12:05:08.649Z,2.25
2018-12-29T12:07:58.170Z,2.18
2018-12-29T12:10:48.166Z,2.11
2018-12-29T12:13:38.296Z,2.25
2018-12-29T12:16:28.357Z,2.33
2018-12-29T12:19:18.880Z,2.38
2018-12-29T12:22:09.399Z,2.40
2018-12-29T12:24:59.051Z,2.58
2018-12-29T12:27:49.623Z,2.68
2018-12-29T12:30:39.627Z,2.88
2018-12-29T12:33:30.394Z,2.75
2018-12-29T12:36:21.072Z,2.77
2018-12-29T12:39:10.934Z,2.78
2018-12-29T12:42:02.370Z,2.79
2018-12-29T12:44:52.889Z,2.78
2018-12-29T12:47:42.997Z,2.80
2018-12-29T12:50:34.370Z,3.02
2018-12-29T12:53:24.419Z,2.99
2018-12-29T12:56:14.426Z,3.06
2018-12-29T12:59:04.592Z,3.07
2018-12-29T13:01:54.747Z,3.12
2018-12-29T13:04:44.969Z,2.92
2018-12-29T13:07:35.409Z,3.03
2018-12-29T13:10:25.929Z,2.97
2018-12-29T13:13:16.157Z,3.00
2018-12-29T13:16:05.763Z,3.13
2018-12-29T13:18:55.772Z,3.09
2018-12-29T13:21:48.953Z,3.15
2018-12-29T13:24:38.991Z,3.11
2018-12-29T13:27:29.139Z,3.24
2018-12-29T13:30:19.110Z,3.31
2018-12-29T13:33:09.826Z,3.33
2018-12-29T13:36:00.106Z,3.32
2018-12-29T13:38:50.712Z,3.31
2018-12-29T13:41:41.079Z,3.27
2018-12-29T13:44:31.203Z,3.28
2018-12-29T13:47:21.094Z,3.31
2018-12-29T13:50:11.425Z,3.37
2018-12-29T13:53:01.570Z,3.27
2018-12-29T13:55:51.707Z,3.27
2018-12-29T13:58:41.924Z,3.32
2018-12-29T14:01:32.171Z,3.28
2018-12-29T14:04:22.497Z,3.37
2018-12-29T14:07:12.518Z,3.37
2018-12-29T14:10:02.727Z,3.38
2018-12-29T14:12:52.632Z,3.34
2018-12-29T14:15:42.540Z,3.17
2018-12-29T14:18:32.784Z,3.27
2018-12-29T14:21:22.913Z,3.28
2018-12-29T14:24:12.680Z,3.26
2018-12-29T14:27:02.235Z,3.29
2018-12-29T14:29:52.463Z,3.31
2018-12-29T14:32:42.783Z,3.23
2018-12-29T14:35:32.921Z,3.21
2018-12-29T14:38:23.733Z,3.31
2018-12-29T14:41:13.990Z,3.34
2018-12-29T14:44:03.952Z,3.24
2018-12-29T14:46:53.889Z,3.22
2018-12-29T14:49:44.026Z,3.21
2018-12-29T14:52:33.924Z,3.21
2018-12-29T14:55:24.242Z,3.29
2018-12-29T14:58:14.384Z,3.35
2018-12-29T15:01:04.595Z,3.35
2018-12-29T15:03:55.247Z,3.34
2018-12-29T15:06:45.826Z,3.31
2018-12-29T15:09:35.598Z,3.28
2018-12-29T15:12:25.414Z,3.25
2018-12-29T15:15:15.717Z,3.07
2018-12-29T15:18:05.675Z,2.86
2018-12-29T15:20:56.207Z,2.78
2018-12-29T15:23:45.952Z,2.64
2018-12-29T15:26:36.921Z,2.57
2018-12-29T15:29:27.801Z,2.56
2018-12-29T15:32:18.627Z,2.55
2018-12-29T15:35:08.644Z,2.52
2018-12-29T15:37:59.101Z,2.47
2018-12-29T15:40:48.592Z,2.38
2018-12-29T15:43:38.504Z,2.38
2018-12-29T15:46:28.939Z,2.34
2018-12-29T15:49:18.832Z,2.19
2018-12-29T15:52:09.085Z,2.29
2018-12-29T15:54:59.172Z,2.31
2018-12-29T15:57:49.174Z,2.30
2018-12-29T16:00:38.946Z,2.30
2018-12-29T16:03:29.239Z,2.33
2018-12-29T16:06:20.047Z,2.38
2018-12-29T16:09:09.646Z,2.42
2018-12-29T16:12:00.091Z,2.38
2018-12-29T16:14:50.353Z,2.41
2018-12-29T16:17:40.451Z,2.44
2018-12-29T16:20:31.552Z,2.42
2018-12-29T16:23:22.374Z,2.47
2018-12-29T16:26:13.420Z,2.45
2018-12-29T16:29:04.076Z,2.45
2018-12-29T16:31:54.623Z,2.39
2018-12-29T16:34:44.609Z,2.29
2018-12-29T16:37:34.922Z,2.29
2018-12-29T16:40:25.068Z,2.24
2018-12-29T16:43:15.045Z,2.16
2018-12-29T16:46:04.938Z,2.13
2018-12-29T16:48:54.870Z,2.17
2018-12-29T16:51:45.024Z,2.16
2018-12-29T16:54:35.494Z,2.09
2018-12-29T16:57:25.584Z,2.13
2018-12-29T17:00:16.074Z,2.12
2018-12-29T17:03:06.401Z,2.16
2018-12-29T17:05:56.556Z,2.13
2018-12-29T17:08:46.383Z,2.05
2018-12-29T17:11:36.546Z,2.08
2018-12-29T17:14:26.556Z,2.08
2018-12-29T17:17:17.159Z,1.95
2018-12-29T17:20:07.274Z,2.02
2018-12-29T17:22:58.154Z,1.97
2018-12-29T17:25:48.481Z,1.98
2018-12-29T17:28:38.150Z,1.98
2018-12-29T17:31:28.027Z,1.95
2018-12-29T17:34:18.296Z,1.98
2018-12-29T17:37:08.692Z,1.94
2018-12-29T17:39:59.661Z,1.94
2018-12-29T17:42:51.193Z,1.84
2018-12-29T17:45:41.626Z,1.82
2018-12-29T17:48:31.793Z,1.83
2018-12-29T17:51:21.757Z,1.83
2018-12-29T17:54:12.454Z,1.81
2018-12-29T17:57:02.950Z,1.88
2018-12-29T17:59:53.155Z,1.88
2018-12-29T18:02:43.226Z,1.92
2018-12-29T18:05:33.832Z,1.97
2018-12-29T18:08:24.240Z,1.94
2018-12-29T18:11:14.350Z,1.91
2018-12-29T18:14:04.995Z,1.91
2018-12-29T18:16:56.108Z,1.85
2018-12-29T18:19:46.558Z,1.83
2018-12-29T18:22:36.333Z,1.80
2018-12-29T18:25:26.352Z,1.91
2018-12-29T18:28:16.438Z,1.90
2018-12-29T18:31:06.291Z,1.95
2018-12-29T18:33:56.801Z,1.99
2018-12-29T18:36:46.793Z,2.03
2018-12-29T18:39:37.054Z,1.95
2018-12-29T18:42:27.043Z,1.87
2018-12-29T18:45:17.293Z,1.84
2018-12-29T18:48:07.285Z,1.90
2018-12-29T18:50:57.688Z,1.87
2018-12-29T18:53:47.618Z,1.91
2018-12-29T18:56:45.307Z,1.93
2018-12-29T18:59:30.048Z,1.92
2018-12-29T19:02:20.527Z,1.90
2018-12-29T19:05:10.841Z,1.83
2018-12-29T19:08:00.795Z,1.87
2018-12-29T19:10:50.574Z,1.76
2018-12-29T19:13:41.302Z,1.67
2018-12-29T19:16:31.399Z,1.68
2018-12-29T19:19:21.829Z,1.73
2018-12-29T19:22:11.901Z,1.73
2018-12-29T19:25:02.089Z,1.68
2018-12-29T19:27:52.339Z,1.74
2018-12-29T19:30:42.958Z,1.71
2018-12-29T19:33:33.776Z,1.69
2018-12-29T19:36:24.723Z,1.74
2018-12-29T19:39:14.777Z,1.79
2018-12-29T19:42:05.132Z,1.77
2018-12-29T19:44:55.404Z,1.64
2018-12-29T19:47:45.825Z,1.63
2018-12-29T19:50:36.824Z,1.65
2018-12-29T19:53:26.781Z,1.74
2018-12-29T19:56:16.588Z,1.74
2018-12-29T19:59:06.562Z,1.71
2018-12-29T20:01:57.034Z,1.71
2018-12-29T20:04:47.113Z,1.64
2018-12-29T20:07:37.615Z,1.67
2018-12-29T20:10:28.013Z,1.62
2018-12-29T20:13:18.492Z,1.58
2018-12-29T20:16:08.373Z,1.45
2018-12-29T20:18:58.636Z,1.48
2018-12-29T20:21:48.254Z,1.40
2018-12-29T20:24:39.291Z,1.35
2018-12-29T20:27:29.049Z,1.39
2018-12-29T20:30:19.195Z,1.34
2018-12-29T20:33:09.343Z,1.30
2018-12-29T20:35:59.689Z,1.36
2018-12-29T20:38:50.083Z,1.31
2018-12-29T20:41:40.998Z,1.24
2018-12-29T20:44:31.153Z,1.15
2018-12-29T20:47:21.219Z,1.12
2018-12-29T20:50:11.558Z,1.11
2018-12-29T20:53:01.939Z,1.10
2018-12-29T20:55:51.899Z,1.13
2018-12-29T20:58:42.510Z,1.14
2018-12-29T21:01:33.342Z,1.21
2018-12-29T21:04:23.791Z,1.27
2018-12-29T21:07:13.956Z,1.18
2018-12-29T21:10:05.193Z,1.19
2018-12-29T21:12:55.821Z,1.15
2018-12-29T21:15:45.814Z,1.14
2018-12-29T21:18:35.953Z,1.19
2018-12-29T21:21:26.386Z,1.30
2018-12-29T21:24:16.311Z,1.24
2018-12-29T21:27:06.962Z,1.33
2018-12-29T21:29:56.895Z,1.28
2018-12-29T21:32:47.780Z,1.21
2018-12-29T21:35:39.497Z,1.26
2018-12-29T21:38:29.813Z,1.26
2018-12-29T21:41:19.879Z,1.28
2018-12-29T21:44:10.548Z,1.33
2018-12-29T21:47:01.108Z,1.40
2018-12-29T21:49:51.827Z,1.41
2018-12-29T21:52:42.207Z,1.39
2018-12-29T21:55:32.756Z,1.38
2018-12-29T21:58:23.023Z,1.48
2018-12-29T22:01:13.711Z,1.48
2018-12-29T22:04:03.540Z,1.47
2018-12-29T22:06:53.954Z,1.49
2018-12-29T22:09:44.214Z,1.46
2018-12-29T22:15:24.382Z,1.49
2018-12-29T22:18:15.024Z,1.49
2018-12-29T22:23:54.684Z,1.47
2018-12-29T22:26:44.508Z,1.48
2018-12-29T22:29:34.487Z,1.48
2018-12-29T22:32:24.699Z,1.46
2018-12-29T22:35:15.254Z,1.43
2018-12-29T22:38:05.713Z,1.44
2018-12-29T22:40:55.950Z,1.44
2018-12-29T22:43:45.767Z,1.50
2018-12-29T22:46:36.333Z,1.54
2018-12-29T22:49:26.478Z,1.55
2018-12-29T22:52:17.072Z,1.58
2018-12-29T22:55:07.572Z,1.58
2018-12-29T22:57:57.985Z,1.64
2018-12-29T23:00:50.229Z,1.66
2018-12-29T23:03:39.904Z,1.71
2018-12-29T23:06:29.909Z,1.61
2018-12-29T23:09:20.351Z,1.63
2018-12-29T23:12:10.501Z,1.59
2018-12-29T23:15:01.186Z,1.57
2018-12-29T23:17:51.524Z,1.65
2018-12-29T23:20:48.916Z,1.56
2018-12-29T23:23:33.493Z,1.57
2018-12-29T23:26:23.370Z,1.61
2018-12-29T23:29:13.556Z,1.58
2018-12-29T23:32:03.875Z,1.56
2018-12-29T23:34:52.725Z,1.56
2018-12-29T23:37:40.951Z,1.60
2018-12-29T23:40:30.775Z,1.66
2018-12-29T23:43:20.750Z,1.68
2018-12-29T23:46:10.654Z,1.77
2018-12-29T23:49:00.787Z,1.78
2018-12-29T23:51:51.043Z,1.83
2018-12-29T23:54:41.462Z,1.90
2018-12-29T23:57:31.135Z,1.71
